Time;durP1;ratioP1;P1;durP2;ratioP2;P2;SDS_P1;SDS_P2;PMS_P1;PMS_P2;Temp;Humidity;BMP_temperature;BMP_pressure;BME280_temperature;BME280_humidity;BME280_pressure;Samples;Min_cycle;Max_cycle;Signal;HPM_P1;HPM_P2
2024/01/24 00:00:25;;;;;;;28.70;14.50;;;;;;;3.23;100.00;100977.26;107932;1286;22793;-79
2024/01/24 00:03:17;;;;;;;35.90;16.30;;;;;;;3.20;100.00;100961.59;108037;1290;22015;-79
2024/01/24 00:05:51;;;;;;;28.30;14.10;;;;;;;3.20;100.00;100958.66;108170;1290;22502;-78
2024/01/24 00:08:20;;;;;;;35.60;15.60;;;;;;;3.20;100.00;100959.02;107969;1290;22032;-78
2024/01/24 00:10:49;;;;;;;24.00;11.40;;;;;;;3.23;100.00;100957.82;108122;1290;22004;-78
2024/01/24 00:13:18;;;;;;;30.70;14.10;;;;;;;3.25;100.00;100961.08;108311;1284;23334;-78
2024/01/24 00:15:49;;;;;;;26.60;13.80;;;;;;;3.25;100.00;100950.93;108421;1284;23931;-78
2024/01/24 00:18:22;;;;;;;24.00;11.60;;;;;;;3.24;100.00;100949.90;108416;1284;23562;-78
2024/01/24 00:20:51;;;;;;;23.80;12.30;;;;;;;3.26;100.00;100945.77;108309;1284;23692;-77
2024/01/24 00:23:19;;;;;;;26.40;14.40;;;;;;;3.27;100.00;100942.34;108265;1284;22003;-76
2024/01/24 00:25:49;;;;;;;23.00;12.10;;;;;;;3.28;100.00;100942.34;108305;1284;22813;-78
2024/01/24 00:28:21;;;;;;;24.80;13.20;;;;;;;3.30;100.00;100940.97;108480;1280;21957;-77
2024/01/24 00:30:49;;;;;;;23.30;12.60;;;;;;;3.33;100.00;100942.01;108605;1280;22346;-77
2024/01/24 00:33:17;;;;;;;22.60;11.50;;;;;;;3.36;100.00;100937.19;108548;1280;21995;-75
2024/01/24 00:35:46;;;;;;;25.30;11.70;;;;;;;3.39;100.00;100923.08;108440;1284;22185;-76
2024/01/24 00:38:17;;;;;;;21.50;11.90;;;;;;;3.40;100.00;100904.50;108402;1284;23072;-76
2024/01/24 00:40:46;;;;;;;24.70;13.80;;;;;;;3.44;100.00;100891.09;108418;1284;22461;-77
2024/01/24 00:43:14;;;;;;;29.60;12.80;;;;;;;3.48;100.00;100876.63;108397;1284;22013;-75
2024/01/24 00:45:46;;;;;;;25.90;12.70;;;;;;;3.49;100.00;100857.36;108303;1284;22005;-77
2024/01/24 00:48:22;;;;;;;22.00;11.50;;;;;;;3.52;100.00;100844.79;108158;1284;22857;-78
2024/01/24 00:50:58;;;;;;;19.40;10.70;;;;;;;3.51;100.00;100838.60;108212;1284;22929;-77
2024/01/24 00:53:37;;;;;;;23.40;11.80;;;;;;;3.51;100.00;100830.52;107970;1285;22011;-76
2024/01/24 00:56:06;;;;;;;16.30;8.00;;;;;;;3.51;100.00;100826.73;108226;1285;22006;-78
2024/01/24 00:58:34;;;;;;;21.40;9.50;;;;;;;3.52;100.00;100828.80;108384;1285;23079;-78
2024/01/24 01:01:05;;;;;;;19.00;8.70;;;;;;;3.53;100.00;100823.29;108275;1285;22377;-77
2024/01/24 01:03:33;;;;;;;21.90;9.30;;;;;;;3.56;100.00;100809.34;108296;1285;22081;-76
2024/01/24 01:06:02;;;;;;;22.20;9.30;;;;;;;3.59;100.00;100808.48;108393;1285;22044;-78
2024/01/24 01:08:30;;;;;;;19.40;9.80;;;;;;;3.62;100.00;100803.66;108341;1285;22784;-76
2024/01/24 01:10:58;;;;;;;21.70;9.40;;;;;;;3.67;100.00;100795.71;108433;1280;21993;-79
2024/01/24 01:13:29;;;;;;;17.60;8.90;;;;;;;3.71;100.00;100788.30;108511;1280;23637;-76
2024/01/24 01:15:57;;;;;;;26.00;11.90;;;;;;;3.74;100.00;100787.44;108525;1274;22015;-77
2024/01/24 01:18:28;;;;;;;20.50;11.50;;;;;;;3.76;100.00;100789.33;108429;1284;23046;-77
2024/01/24 01:21:00;;;;;;;26.10;10.20;;;;;;;3.79;100.00;100784.50;108393;1284;22001;-77
2024/01/24 01:23:30;;;;;;;22.00;8.70;;;;;;;3.80;100.00;100775.53;108474;1284;23792;-76
2024/01/24 01:25:59;;;;;;;21.20;9.50;;;;;;;3.80;100.00;100761.25;108505;1284;22009;-78
2024/01/24 01:28:28;;;;;;;24.80;8.90;;;;;;;3.81;100.00;100751.61;108462;1284;23052;-76
2024/01/24 01:31:00;;;;;;;20.20;10.70;;;;;;;3.81;100.00;100738.36;108343;1284;22012;-76
2024/01/24 01:33:31;;;;;;;24.50;10.20;;;;;;;3.78;100.00;100731.82;108159;1289;23904;-77
2024/01/24 01:36:03;;;;;;;19.80;9.80;;;;;;;3.79;100.00;100723.90;108180;1285;23102;-76
2024/01/24 01:38:51;;;;;;;22.10;10.60;;;;;;;3.79;100.00;100708.59;108219;1285;22980;-77
2024/01/24 01:41:20;;;;;;;18.20;9.80;;;;;;;3.81;100.00;100702.89;108158;1285;24166;-76
2024/01/24 01:43:53;;;;;;;19.50;9.20;;;;;;;3.84;100.00;100704.24;108366;1285;23861;-77
2024/01/24 01:46:31;;;;;;;16.60;7.40;;;;;;;3.87;100.00;100696.48;108138;1285;22071;-78
2024/01/24 01:49:04;;;;;;;18.70;8.60;;;;;;;3.88;100.00;100682.36;108127;1288;23080;-77
2024/01/24 01:51:33;;;;;;;16.90;7.50;;;;;;;3.90;100.00;100662.55;107691;1291;23905;-79
2024/01/24 01:54:03;;;;;;;19.70;8.10;;;;;;;3.93;100.00;100648.59;107921;1291;22022;-79
2024/01/24 01:56:31;;;;;;;19.70;8.20;;;;;;;3.94;100.00;100644.63;107578;1293;23787;-78
2024/01/24 01:59:00;;;;;;;19.40;8.30;;;;;;;3.93;100.00;100643.77;107575;1293;22701;-76
2024/01/24 02:01:30;;;;;;;17.40;7.90;;;;;;;3.94;100.00;100642.21;107719;1292;22980;-77
2024/01/24 02:04:00;;;;;;;24.40;9.40;;;;;;;3.92;100.00;100636.37;107085;1298;22013;-77
2024/01/24 02:06:33;;;;;;;18.00;7.20;;;;;;;3.91;100.00;100629.15;107390;1298;22061;-77
2024/01/24 02:09:02;;;;;;;18.30;6.90;;;;;;;3.92;100.00;100636.89;107065;1299;22019;-78
2024/01/24 02:11:32;;;;;;;19.00;7.40;;;;;;;3.91;100.00;100639.65;106583;1305;22059;-77
2024/01/24 02:14:00;;;;;;;16.20;7.30;;;;;;;3.89;100.00;100633.80;106177;1304;22090;-78
2024/01/24 02:16:29;;;;;;;13.50;4.80;;;;;;;3.91;100.00;100628.98;106768;1302;22030;-77
2024/01/24 02:18:58;;;;;;;;;;;;;;;3.93;100.00;100627.59;106647;1302;22007;-78
2024/01/24 02:21:27;;;;;;;13.10;6.40;;;;;;;3.94;100.00;100621.04;107084;1297;22160;-77
2024/01/24 02:24:00;;;;;;;12.40;5.80;;;;;;;3.99;100.00;100598.27;107300;1297;23762;-77
2024/01/24 02:26:31;;;;;;;14.80;8.50;;;;;;;3.97;100.00;100569.02;106814;1296;23669;-78
2024/01/24 02:29:00;;;;;;;17.90;8.50;;;;;;;3.95;100.00;100539.59;107466;1292;23069;-78
2024/01/24 02:31:37;;;;;;;18.90;8.50;;;;;;;3.91;100.00;100519.45;107854;1285;22145;-79
2024/01/24 02:34:11;;;;;;;17.70;7.60;;;;;;;3.85;100.00;100506.42;108385;1286;23691;-77
2024/01/24 02:36:51;;;;;;;17.70;8.00;;;;;;;3.80;100.00;100490.63;108223;1286;22001;-78
2024/01/24 02:39:23;;;;;;;16.60;7.20;;;;;;;3.81;100.00;100478.75;108168;1285;22464;-77
2024/01/24 02:41:53;;;;;;;15.90;6.50;;;;;;;3.82;100.00;100460.49;108404;1286;22976;-77
2024/01/24 02:44:28;;;;;;;14.70;6.50;;;;;;;3.84;100.00;100440.16;108094;1285;22080;-77
2024/01/24 02:47:07;;;;;;;20.90;7.40;;;;;;;3.85;100.00;100410.02;108308;1285;22001;-79
2024/01/24 02:49:36;;;;;;;22.60;8.10;;;;;;;3.86;100.00;100398.14;108241;1285;23743;-78
2024/01/24 02:52:15;;;;;;;20.00;8.60;;;;;;;3.84;100.00;100405.20;108130;1288;22551;-78
2024/01/24 02:54:58;;;;;;;20.10;8.00;;;;;;;3.84;100.00;100416.40;107792;1293;23130;-77
2024/01/24 02:57:31;;;;;;;18.10;7.50;;;;;;;3.89;100.00;100431.16;107195;1298;22015;-78
2024/01/24 03:00:15;;;;;;;22.60;9.10;;;;;;;3.92;100.00;100422.18;107018;1302;23164;-77
2024/01/24 03:02:53;;;;;;;22.20;8.40;;;;;;;3.93;100.00;100416.83;107109;1298;23845;-77
2024/01/24 03:05:24;;;;;;;17.90;7.60;;;;;;;3.92;100.00;100415.64;107173;1299;23008;-77
2024/01/24 03:07:59;;;;;;;18.90;7.90;;;;;;;3.90;100.00;100406.52;106566;1305;23730;-77
2024/01/24 03:10:47;;;;;;;17.30;8.50;;;;;;;3.89;100.00;100387.25;106758;1302;22888;-77
2024/01/24 03:13:18;;;;;;;17.60;7.40;;;;;;;3.91;100.00;100373.30;106879;1297;23865;-76
2024/01/24 03:16:00;;;;;;;17.00;7.10;;;;;;;3.95;100.00;100369.30;107624;1293;24328;-78
2024/01/24 03:18:35;;;;;;;13.50;6.90;;;;;;;3.98;100.00;100353.08;107839;1287;22008;-77
2024/01/24 03:21:09;;;;;;;16.40;8.40;;;;;;;4.01;100.00;100347.36;108276;1286;22010;-77
2024/01/24 03:23:43;;;;;;;18.30;7.50;;;;;;;4.03;100.00;100345.61;108166;1288;22061;-78
2024/01/24 03:26:14;;;;;;;18.60;8.20;;;;;;;4.03;100.00;100345.43;108361;1280;23107;-77
2024/01/24 03:28:51;;;;;;;20.10;6.70;;;;;;;4.02;100.00;100346.48;108517;1280;204202;-78
2024/01/24 03:31:37;;;;;;;14.00;6.60;;;;;;;4.02;100.00;100341.15;108561;1280;23055;-78
2024/01/24 03:34:12;;;;;;;19.00;7.30;;;;;;;4.00;100.00;100336.52;108397;1286;22134;-78
2024/01/24 03:36:44;;;;;;;15.80;7.80;;;;;;;3.97;100.00;100336.38;108209;1286;22006;-76
2024/01/24 03:39:16;;;;;;;16.00;6.60;;;;;;;3.98;100.00;100336.20;108104;1286;22005;-78
2024/01/24 03:41:48;;;;;;;17.20;6.90;;;;;;;4.01;100.00;100330.31;108226;1286;23761;-78
2024/01/24 03:44:22;;;;;;;19.90;7.10;;;;;;;4.04;100.00;100325.79;108363;1286;22042;-78
2024/01/24 03:46:54;;;;;;;12.10;6.20;;;;;;;4.07;100.00;100324.04;108147;1286;23725;-77
2024/01/24 03:49:30;;;;;;;17.50;7.20;;;;;;;4.08;100.00;100316.11;108112;1286;22023;-78
2024/01/24 03:52:05;;;;;;;13.20;6.80;;;;;;;4.10;100.00;100307.65;108260;1280;22018;-76
2024/01/24 03:54:38;;;;;;;21.50;7.80;;;;;;;4.12;100.00;100295.40;108398;1286;22002;-76
2024/01/24 03:57:06;;;;;;;20.40;6.40;;;;;;;4.13;100.00;100292.46;107930;1292;23703;-77
2024/01/24 03:59:41;;;;;;;20.40;7.50;;;;;;;4.14;100.00;100284.52;107917;1292;22996;-77
2024/01/24 04:02:21;;;;;;;16.40;6.70;;;;;;;4.14;100.00;100277.80;107924;1292;23664;-77
2024/01/24 04:04:53;;;;;;;14.30;6.40;;;;;;;4.18;100.00;100280.51;107952;1292;22011;-78
2024/01/24 04:07:32;;;;;;;66.90;46.70;;;;;;;4.22;100.00;100271.66;107829;1292;24403;-75
2024/01/24 04:10:03;;;;;;;13.40;7.70;;;;;;;4.27;100.00;100268.49;107676;1294;23546;-78
2024/01/24 04:12:43;;;;;;;42.90;28.20;;;;;;;4.30;100.00;100261.23;107303;1294;22036;-79
2024/01/24 04:15:20;;;;;;;14.50;7.50;;;;;;;4.32;100.00;100259.65;107779;1290;21989;-77
2024/01/24 04:17:51;;;;;;;18.20;7.80;;;;;;;4.32;100.00;100253.11;107832;1291;22009;-77
2024/01/24 04:20:32;;;;;;;15.10;6.70;;;;;;;4.33;100.00;100249.14;108051;1289;22230;-77
2024/01/24 04:23:00;;;;;;;18.60;7.70;;;;;;;4.30;100.00;100239.35;108002;1290;22560;-78
2024/01/24 04:25:29;;;;;;;21.60;8.30;;;;;;;4.32;100.00;100230.87;108021;1290;23634;-78
2024/01/24 04:28:03;;;;;;;19.30;7.90;;;;;;;4.33;100.00;100220.69;107740;1292;22009;-77
2024/01/24 04:30:36;;;;;;;18.40;7.10;;;;;;;4.31;100.00;100215.04;107948;1287;22033;-77
2024/01/24 04:33:10;;;;;;;13.00;6.20;;;;;;;4.33;100.00;100209.00;108299;1287;22003;-78
2024/01/24 04:35:42;;;;;;;15.50;6.70;;;;;;;4.36;100.00;100199.65;108214;1287;23183;-77
2024/01/24 04:38:17;;;;;;;17.70;6.60;;;;;;;4.33;100.00;100190.89;107950;1291;22901;-78
2024/01/24 04:40:56;;;;;;;23.30;9.80;;;;;;;4.29;100.00;100182.69;107828;1291;22093;-78
2024/01/24 04:43:41;;;;;;;33.10;16.60;;;;;;;4.26;100.00;100168.60;107602;1294;24171;-80
2024/01/24 04:46:15;;;;;;;18.80;8.20;;;;;;;4.24;100.00;100158.81;107724;1290;22436;-77
2024/01/24 04:48:52;;;;;;;12.00;5.20;;;;;;;4.22;100.00;100150.74;108182;1290;23783;-78
2024/01/24 04:51:24;;;;;;;22.20;10.20;;;;;;;4.21;100.00;100144.23;108128;1290;22876;-77
2024/01/24 04:53:57;;;;;;;16.60;8.10;;;;;;;4.18;100.00;100132.21;107802;1290;22151;-77
2024/01/24 04:56:34;;;;;;;20.80;8.30;;;;;;;4.16;100.00;100115.71;107966;1286;23642;-76
2024/01/24 04:59:14;;;;;;;;;;;;;;;4.15;100.00;100104.52;108355;1286;23635;-78
2024/01/24 05:01:47;;;;;;;16.90;6.30;;;;;;;4.08;100.00;100097.05;108322;1281;22003;-78
2024/01/24 05:04:23;;;;;;;16.10;6.00;;;;;;;4.08;100.00;100087.92;108146;1286;21997;-77
2024/01/24 05:06:57;;;;;;;14.20;6.50;;;;;;;4.09;100.00;100068.28;108267;1286;22609;-77
2024/01/24 05:09:31;;;;;;;17.40;6.60;;;;;;;4.09;100.00;100059.83;108227;1286;23827;-78
2024/01/24 05:12:04;;;;;;;18.70;6.90;;;;;;;4.11;100.00;100053.45;108150;1286;22011;-80
2024/01/24 05:14:43;;;;;;;18.80;7.20;;;;;;;4.09;100.00;100058.63;107820;1291;23219;-78
2024/01/24 05:17:15;;;;;;;13.20;5.30;;;;;;;4.10;100.00;100065.00;107963;1279;23829;-77
2024/01/24 05:19:48;;;;;;;15.70;5.80;;;;;;;4.10;100.00;100061.90;107328;1297;22057;-78
2024/01/24 05:22:21;;;;;;;10.80;5.80;;;;;;;4.10;100.00;100055.88;107017;1301;23199;-78
2024/01/24 05:24:56;;;;;;;13.90;7.00;;;;;;;4.09;100.00;100052.63;106983;1300;23780;-78
2024/01/24 05:27:28;;;;;;;27.30;16.00;;;;;;;4.08;100.00;100041.09;107187;1301;24413;-78
2024/01/24 05:30:03;;;;;;;21.50;9.50;;;;;;;4.07;100.00;100040.60;107423;1297;22106;-78
2024/01/24 05:32:56;;;;;;;16.40;6.80;;;;;;;4.04;100.00;100032.37;107534;1292;22023;-79
2024/01/24 05:35:25;;;;;;;13.70;6.90;;;;;;;4.01;100.00;100027.24;107752;1292;22237;-78
2024/01/24 05:37:55;;;;;;;15.40;6.60;;;;;;;4.03;100.00;100026.35;107937;1286;22017;-79
2024/01/24 05:40:26;;;;;;;13.50;7.20;;;;;;;4.06;100.00;100020.63;108240;1281;22856;-80
2024/01/24 05:43:02;;;;;;;17.10;7.20;;;;;;;4.07;100.00;100015.27;108506;1281;22031;-78
2024/01/24 05:45:31;;;;;;;20.40;6.80;;;;;;;4.07;100.00;100004.60;108502;1281;21969;-79
2024/01/24 05:48:01;;;;;;;19.50;10.20;;;;;;;4.05;100.00;100003.08;108713;1281;21998;-79
2024/01/24 05:50:29;;;;;;;43.50;23.10;;;;;;;4.03;100.00;99997.60;108165;1286;22502;-79
2024/01/24 05:52:59;;;;;;;31.30;16.80;;;;;;;4.03;100.00;100000.19;108162;1288;22320;-78
2024/01/24 05:55:30;;;;;;;23.80;10.60;;;;;;;4.04;100.00;99996.38;108120;1288;23624;-77
2024/01/24 05:58:02;;;;;;;10.70;6.30;;;;;;;4.07;100.00;99994.78;108165;1288;22065;-78
2024/01/24 06:00:30;;;;;;;14.00;5.80;;;;;;;4.07;100.00;99983.75;108072;1288;22149;-79
2024/01/24 06:03:00;;;;;;;16.20;6.30;;;;;;;4.05;100.00;99965.02;108073;1288;22366;-77
2024/01/24 06:06:02;;;;;;;13.10;7.10;;;;;;;4.07;100.00;99944.33;108207;1288;22025;-78
2024/01/24 06:08:47;;;;;;;15.10;6.60;;;;;;;4.09;100.00;99924.99;107849;1288;22934;-79
2024/01/24 06:11:30;;;;;;;13.60;6.20;;;;;;;4.12;100.00;99906.36;108080;1288;22942;-76
2024/01/24 06:14:04;;;;;;;12.10;6.10;;;;;;;4.11;100.00;99887.42;108148;1288;22100;-78
2024/01/24 06:16:36;;;;;;;14.30;6.80;;;;;;;4.09;100.00;99880.41;107963;1291;23068;-78
2024/01/24 06:19:08;;;;;;;16.50;7.80;;;;;;;4.06;100.00;99873.23;107907;1292;23025;-77
2024/01/24 06:21:37;;;;;;;9.70;6.10;;;;;;;4.06;100.00;99871.16;107766;1292;23684;-80
2024/01/24 06:24:06;;;;;;;17.90;7.10;;;;;;;4.08;100.00;99872.85;107580;1294;22053;-78
2024/01/24 06:26:37;;;;;;;19.60;7.40;;;;;;;4.09;100.00;99877.64;107646;1294;23109;-83
2024/01/24 06:29:13;;;;;;;15.40;7.10;;;;;;;4.12;100.00;99877.23;107663;1294;22017;-79
2024/01/24 06:31:41;;;;;;;20.80;8.80;;;;;;;4.15;100.00;99864.80;107633;1294;22017;-77
2024/01/24 06:34:16;;;;;;;14.30;7.40;;;;;;;4.16;100.00;99857.02;107626;1292;22052;-78
2024/01/24 06:36:52;;;;;;;12.90;7.10;;;;;;;4.19;100.00;99863.34;107789;1292;23105;-77
2024/01/24 06:39:30;;;;;;;11.00;7.60;;;;;;;4.21;100.00;99858.13;107741;1291;22114;-77
2024/01/24 06:41:59;;;;;;;11.20;6.70;;;;;;;4.24;100.00;99858.92;107871;1288;22007;-78
2024/01/24 06:44:28;;;;;;;12.00;6.50;;;;;;;4.29;100.00;99857.11;107948;1288;22024;-77
2024/01/24 06:46:56;;;;;;;10.10;5.90;;;;;;;4.33;100.00;99847.21;108381;1281;24092;-77
2024/01/24 06:49:24;;;;;;;9.20;5.70;;;;;;;4.39;100.00;99841.59;108430;1281;22016;-78
2024/01/24 06:51:56;;;;;;;10.70;5.20;;;;;;;4.43;100.00;99829.95;108490;1281;21997;-80
2024/01/24 06:54:24;;;;;;;9.50;4.40;;;;;;;4.46;100.00;99818.35;108115;1288;23074;-79
2024/01/24 06:56:52;;;;;;;8.70;4.40;;;;;;;4.48;100.00;99817.80;108120;1288;21980;-76
2024/01/24 06:59:23;;;;;;;8.80;4.10;;;;;;;4.50;100.00;99812.73;108052;1288;23071;-79
2024/01/24 07:02:00;;;;;;;7.70;4.00;;;;;;;4.54;100.00;99813.19;108005;1288;22023;-77
2024/01/24 07:04:29;;;;;;;10.70;5.80;;;;;;;4.56;100.00;99812.98;108012;1286;23655;-78
2024/01/24 07:07:23;;;;;;;;;;;;;;;4.53;100.00;99784.44;107971;1288;23063;-77
2024/01/24 07:10:28;;;;;;;9.90;5.90;;;;;;;4.50;100.00;99784.30;108006;1290;22865;-78
2024/01/24 07:12:57;;;;;;;8.90;6.10;;;;;;;4.54;100.00;99786.13;108073;1285;22439;-79
2024/01/24 07:15:26;;;;;;;9.00;5.50;;;;;;;4.61;100.00;99780.62;108138;1285;23067;-78
2024/01/24 07:17:58;;;;;;;8.90;6.60;;;;;;;4.68;100.00;99765.47;108392;1285;23117;-79
2024/01/24 07:20:38;;;;;;;12.20;6.70;;;;;;;4.73;100.00;99751.91;108316;1285;23624;-78
2024/01/24 07:23:09;;;;;;;8.10;6.50;;;;;;;4.78;100.00;99747.67;108170;1285;22743;-77
2024/01/24 07:25:41;;;;;;;8.70;5.70;;;;;;;4.81;100.00;99750.34;108441;1285;22007;-77
2024/01/24 07:28:10;;;;;;;7.50;6.20;;;;;;;4.76;100.00;99734.25;108457;1281;23034;-77
2024/01/24 07:30:38;;;;;;;8.00;5.90;;;;;;;4.89;100.00;99744.46;108468;1281;22956;-76
2024/01/24 07:33:09;;;;;;;10.60;5.70;;;;;;;4.93;100.00;99746.09;108458;1281;23666;-79
2024/01/24 07:35:41;;;;;;;8.70;6.20;;;;;;;4.97;100.00;99736.34;108522;1281;23648;-78
2024/01/24 07:38:13;;;;;;;7.60;4.60;;;;;;;5.02;100.00;99729.66;108513;1281;22861;-79
2024/01/24 07:40:44;;;;;;;7.00;4.90;;;;;;;5.05;100.00;99727.85;108480;1281;23761;-78
2024/01/24 07:43:29;;;;;;;8.20;5.70;;;;;;;5.10;100.00;99726.36;108325;1281;22774;-77
2024/01/24 07:46:02;;;;;;;7.20;5.60;;;;;;;5.13;100.00;99727.83;108678;1281;22111;-80
2024/01/24 07:48:40;;;;;;;8.30;5.50;;;;;;;5.18;100.00;99727.04;108000;1289;22134;-77
2024/01/24 07:51:14;;;;;;;10.50;6.10;;;;;;;5.23;100.00;99726.20;108317;1287;22015;-78
2024/01/24 07:53:46;;;;;;;7.50;6.00;;;;;;;5.29;100.00;99709.66;108063;1288;23183;-77
2024/01/24 07:56:30;;;;;;;4.70;4.20;;;;;;;5.35;100.00;99707.59;107853;1289;22761;-75
2024/01/24 07:59:05;;;;;;;8.90;7.80;;;;;;;5.42;100.00;99704.66;107914;1289;23558;-76
2024/01/24 08:01:34;;;;;;;10.10;5.60;;;;;;;5.47;100.00;99694.86;108049;1289;24346;-74
2024/01/24 08:04:10;;;;;;;7.70;6.40;;;;;;;5.52;100.00;99701.44;107967;1289;23100;-75
2024/01/24 08:06:40;;;;;;;9.60;6.20;;;;;;;5.59;100.00;99696.62;107924;1286;22008;-76
2024/01/24 08:09:09;;;;;;;10.30;7.10;;;;;;;5.66;100.00;99702.27;108236;1286;22000;-76
2024/01/24 08:11:40;;;;;;;10.90;6.70;;;;;;;5.74;100.00;99699.63;108039;1285;23775;-76
2024/01/24 08:14:09;;;;;;;7.10;5.90;;;;;;;5.82;100.00;99694.55;108189;1285;23124;-76
2024/01/24 08:16:37;;;;;;;14.20;6.40;;;;;;;5.94;100.00;99697.21;108249;1285;22062;-76
2024/01/24 08:19:08;;;;;;;8.40;5.70;;;;;;;6.02;100.00;99689.88;108147;1285;23149;-78
2024/01/24 08:21:38;;;;;;;7.20;6.40;;;;;;;6.10;100.00;99695.34;108222;1285;23103;-76
2024/01/24 08:24:07;;;;;;;14.30;6.00;;;;;;;6.17;100.00;99690.46;108259;1282;24376;-78
2024/01/24 08:26:35;;;;;;;11.90;7.20;;;;;;;6.22;100.00;99687.21;108453;1281;24288;-78
2024/01/24 08:29:10;;;;;;;12.00;8.10;;;;;;;6.25;100.00;99688.84;108529;1281;23832;-78
2024/01/24 08:31:53;;;;;;;6.10;5.30;;;;;;;6.29;100.00;99695.96;108457;1281;21998;-78
2024/01/24 08:34:22;;;;;;;10.60;6.50;;;;;;;6.29;100.00;99698.39;108414;1281;22004;-77
2024/01/24 08:36:51;;;;;;;12.20;6.50;;;;;;;6.32;100.00;99689.33;108449;1281;21982;-79
2024/01/24 08:39:20;;;;;;;7.90;6.10;;;;;;;6.36;100.00;99677.10;108097;1286;25078;-77
2024/01/24 08:41:49;;;;;;;11.20;6.70;;;;;;;6.39;100.00;99672.86;108238;1283;23075;-77
2024/01/24 08:44:18;;;;;;;7.00;4.80;;;;;;;6.45;100.00;99674.91;108375;1286;22070;-77
2024/01/24 08:46:49;;;;;;;11.10;7.20;;;;;;;6.52;100.00;99680.74;108108;1286;24475;-77
2024/01/24 08:49:18;;;;;;;9.20;6.10;;;;;;;6.59;100.00;99677.24;108016;1289;22020;-79
2024/01/24 08:51:48;;;;;;;9.10;5.80;;;;;;;6.65;100.00;99669.24;108007;1291;23118;-78
2024/01/24 08:54:18;;;;;;;9.90;6.50;;;;;;;6.71;100.00;99670.96;107976;1291;22011;-78
2024/01/24 08:56:51;;;;;;;10.80;8.70;;;;;;;6.76;100.00;99669.06;107664;1291;22005;-77
2024/01/24 08:59:37;;;;;;;12.60;9.30;;;;;;;6.78;100.00;99665.36;107950;1290;22142;-78
2024/01/24 09:02:10;;;;;;;9.40;7.80;;;;;;;6.79;100.00;99655.15;107930;1291;22211;-78
2024/01/24 09:04:43;;;;;;;11.90;8.60;;;;;;;6.84;100.00;99643.92;107597;1292;22010;-78
2024/01/24 09:07:16;;;;;;;8.80;6.90;;;;;;;6.89;100.00;99643.22;107828;1290;22016;-78
2024/01/24 09:09:47;;;;;;;9.40;6.20;;;;;;;6.89;100.00;99642.35;107969;1289;23974;-77
2024/01/24 09:12:18;;;;;;;10.60;9.20;;;;;;;6.90;100.00;99642.85;107928;1289;22751;-78
2024/01/24 09:14:54;;;;;;;10.50;9.20;;;;;;;6.96;100.00;99641.76;108142;1284;21997;-80
2024/01/24 09:17:29;;;;;;;13.90;11.30;;;;;;;7.10;100.00;99640.09;108115;1284;23650;-78
2024/01/24 09:19:58;;;;;;;9.30;7.90;;;;;;;7.28;100.00;99644.98;108060;1288;22018;-79
2024/01/24 09:22:37;;;;;;;10.30;9.20;;;;;;;7.46;100.00;99640.56;108083;1272;23056;-79
2024/01/24 09:25:10;;;;;;;10.10;9.00;;;;;;;7.54;100.00;99631.77;108105;1289;22004;-78
2024/01/24 09:27:42;;;;;;;;;;;;;;;7.56;100.00;99626.50;107674;1294;22860;-79
2024/01/24 09:30:13;;;;;;;11.20;8.50;;;;;;;7.60;100.00;99628.05;107646;1293;22077;-78
2024/01/24 09:32:42;;;;;;;13.10;11.00;;;;;;;7.65;100.00;99627.38;107237;1297;24495;-76
2024/01/24 09:35:17;;;;;;;;;;;;;;;7.65;100.00;99629.27;106940;1302;22661;-78
2024/01/24 09:37:46;;;;;;;12.50;11.00;;;;;;;7.67;100.00;99631.83;106887;1299;22808;-77
2024/01/24 09:40:16;;;;;;;17.70;14.10;;;;;;;7.70;100.00;99624.43;107129;1300;22016;-78
2024/01/24 09:42:49;;;;;;;20.00;17.90;;;;;;;7.73;100.00;99618.78;107076;1300;22009;-77
2024/01/24 09:45:22;;;;;;;20.40;13.10;;;;;;;7.75;100.00;99613.14;107097;1296;22025;-75
2024/01/24 09:47:51;;;;;;;20.30;10.90;;;;;;;7.77;100.00;99610.11;107477;1296;23054;-76
2024/01/24 09:50:28;;;;;;;14.00;9.10;;;;;;;7.82;100.00;99609.06;107643;1288;22439;-80
2024/01/24 09:53:09;;;;;;;13.70;8.60;;;;;;;7.85;100.00;99611.36;108312;1280;23790;-77
2024/01/24 09:55:38;;;;;;;16.80;11.80;;;;;;;7.86;100.00;99613.93;108431;1280;22001;-77
2024/01/24 09:58:06;;;;;;;11.70;9.60;;;;;;;7.88;100.00;99618.20;108549;1280;23146;-76
2024/01/24 10:00:38;;;;;;;14.20;12.00;;;;;;;7.92;100.00;99613.72;108536;1280;22880;-76
2024/01/24 10:03:07;;;;;;;15.50;11.10;;;;;;;7.95;100.00;99608.73;108571;1280;22033;-76
2024/01/24 10:05:37;;;;;;;13.90;9.90;;;;;;;7.98;100.00;99605.34;108462;1280;22767;-76
2024/01/24 10:08:08;;;;;;;21.00;13.70;;;;;;;7.99;100.00;99606.83;108443;1280;23048;-75
2024/01/24 10:10:46;;;;;;;12.60;10.60;;;;;;;8.03;100.00;99606.69;108576;1280;22042;-78
2024/01/24 10:13:31;;;;;;;13.00;9.70;;;;;;;8.07;100.00;99598.39;108536;1280;21990;-76
2024/01/24 10:16:00;;;;;;;15.70;14.00;;;;;;;8.15;100.00;99593.91;108534;1280;22004;-76
2024/01/24 10:18:31;;;;;;;19.40;15.80;;;;;;;8.24;100.00;99584.18;108447;1280;23050;-75
2024/01/24 10:21:04;;;;;;;16.60;13.80;;;;;;;8.31;100.00;99576.11;108530;1280;22061;-75
2024/01/24 10:23:59;;;;;;;15.60;11.80;;;;;;;8.38;100.00;99582.61;108474;1280;22008;-77
2024/01/24 10:26:37;;;;;;;16.30;12.90;;;;;;;8.47;100.00;99578.80;108438;1283;21999;-76
2024/01/24 10:29:30;;;;;;;14.20;10.90;;;;;;;8.56;100.00;99571.50;108392;1283;22014;-77
2024/01/24 10:32:09;;;;;;;14.00;11.70;;;;;;;8.68;100.00;99574.11;108326;1283;23772;-79
2024/01/24 10:34:56;;;;;;;12.10;9.80;;;;;;;8.82;100.00;99576.83;108386;1283;23076;-77
2024/01/24 10:37:31;;;;;;;10.00;8.80;;;;;;;8.97;100.00;99582.06;108478;1283;24445;-77
2024/01/24 10:40:18;;;;;;;17.40;15.10;;;;;;;9.09;100.00;99580.35;108338;1283;22764;-76
2024/01/24 10:43:14;;;;;;;14.00;10.20;;;;;;;9.24;100.00;99568.56;108351;1284;23758;-76
2024/01/24 10:46:03;;;;;;;15.00;12.00;;;;;;;9.47;100.00;99558.30;108620;1280;23106;-76
2024/01/24 10:49:09;;;;;;;13.80;10.50;;;;;;;9.73;100.00;99551.36;108610;1280;22000;-77
2024/01/24 10:52:07;;;;;;;10.40;7.90;;;;;;;10.00;100.00;99545.24;108610;1279;23721;-77
2024/01/24 10:55:03;;;;;;;11.90;8.10;;;;;;;10.31;100.00;99550.16;108610;1280;21989;-81
2024/01/24 10:57:36;;;;;;;10.70;8.00;;;;;;;10.55;100.00;99546.39;108661;1280;21995;-81
2024/01/24 11:00:10;;;;;;;9.80;5.50;;;;;;;10.76;100.00;99550.00;108624;1280;23059;-81
2024/01/24 11:02:47;;;;;;;6.90;4.70;;;;;;;10.97;100.00;99544.20;108581;1285;21999;-81
2024/01/24 11:05:40;;;;;;;9.70;5.00;;;;;;;11.13;100.00;99540.98;108758;1285;22407;-79
2024/01/24 11:08:44;;;;;;;7.20;4.50;;;;;;;11.26;100.00;99543.40;108459;1285;22004;-78
2024/01/24 11:11:22;;;;;;;8.10;4.80;;;;;;;11.34;100.00;99548.54;108590;1285;22021;-79
2024/01/24 11:14:02;;;;;;;8.20;4.30;;;;;;;11.37;100.00;99542.49;108445;1285;22111;-78
2024/01/24 11:16:37;;;;;;;13.00;6.90;;;;;;;11.39;100.00;99538.36;108236;1285;23624;-79
2024/01/24 11:19:27;;;;;;;8.70;6.00;;;;;;;11.39;100.00;99529.44;108171;1289;22021;-78
2024/01/24 11:22:25;;;;;;;19.40;11.70;;;;;;;11.38;100.00;99531.64;108397;1285;22050;-77
2024/01/24 11:25:13;;;;;;;13.70;9.30;;;;;;;11.36;100.00;99537.15;108183;1285;22253;-77
2024/01/24 11:27:59;;;;;;;11.20;8.00;;;;;;;11.32;100.00;99546.57;108446;1285;21995;-80
2024/01/24 11:30:42;;;;;;;17.90;12.20;;;;;;;11.29;100.00;99545.14;108399;1285;22013;-79
2024/01/24 11:33:20;;;;;;;17.50;9.90;;;;;;;11.25;100.00;99542.77;108384;1285;22102;-79
2024/01/24 11:35:55;;;;;;;13.80;8.00;;;;;;;11.23;100.00;99549.13;108153;1288;22004;-77
2024/01/24 11:38:32;;;;;;;14.80;11.30;;;;;;;11.22;100.00;99544.34;107966;1289;23644;-76
2024/01/24 11:41:29;;;;;;;15.20;9.50;;;;;;;11.21;100.00;99543.86;108072;1289;22046;-77
2024/01/24 11:44:10;;;;;;;13.80;9.30;;;;;;;11.18;100.00;99546.82;108171;1285;23745;-77
2024/01/24 11:46:54;;;;;;;15.40;7.40;;;;;;;11.16;100.00;99550.75;107998;1290;22013;-77